Terminal Aerodrome Forecast
Issued by NWS

Home | Current Version | Previous Version | Text Only | Print | Product List | Glossary Off
Versions: 1 2 3 4 5 6 7 8 9 10 11 12 13 14 15 16

000
FTUS43 KICT 171000 AAA
TAFCNU
TAF AMD
KCNU 171010Z 1710/1806 00000KT 4SM BR SCT100
      TEMPO 1710/1714 2SM BR
     FM171400 02005KT P6SM SCT010
     FM171500 02007KT P6SM SKC
     FM180100 08007KT P6SM SKC=

USA.gov is the U.S. government's official web portal to all federal, state and local government web resources and services.